sensor_id;sensor_type;location;lat;lon;timestamp;temperature;humidity
1429;DHT22;708;51.442;7.016;2023-07-16T00:00:21;20.80;1.00
1429;DHT22;708;51.442;7.016;2023-07-16T00:02:47;20.80;1.00
1429;DHT22;708;51.442;7.016;2023-07-16T00:05:14;20.80;1.00
1429;DHT22;708;51.442;7.016;2023-07-16T00:07:41;20.80;1.00
1429;DHT22;708;51.442;7.016;2023-07-16T00:10:10;20.80;1.00
1429;DHT22;708;51.442;7.016;2023-07-16T00:12:37;20.80;1.00
1429;DHT22;708;51.442;7.016;2023-07-16T00:15:04;20.90;1.00
1429;DHT22;708;51.442;7.016;2023-07-16T00:17:32;20.90;1.00
1429;DHT22;708;51.442;7.016;2023-07-16T00:19:59;20.80;1.00
1429;DHT22;708;51.442;7.016;2023-07-16T00:22:26;20.80;1.00
1429;DHT22;708;51.442;7.016;2023-07-16T00:24:53;20.80;1.00
1429;DHT22;708;51.442;7.016;2023-07-16T00:27:21;20.60;1.00
1429;DHT22;708;51.442;7.016;2023-07-16T00:29:47;20.60;6.60
1429;DHT22;708;51.442;7.016;2023-07-16T00:32:14;20.60;6.90
1429;DHT22;708;51.442;7.016;2023-07-16T00:34:41;20.50;7.90
1429;DHT22;708;51.442;7.016;2023-07-16T00:37:08;20.50;9.60
1429;DHT22;708;51.442;7.016;2023-07-16T00:39:34;20.50;13.80
1429;DHT22;708;51.442;7.016;2023-07-16T00:42:02;20.50;17.50
1429;DHT22;708;51.442;7.016;2023-07-16T00:44:30;20.50;25.10
1429;DHT22;708;51.442;7.016;2023-07-16T00:46:57;20.60;39.50
1429;DHT22;708;51.442;7.016;2023-07-16T00:49:24;20.50;44.30
1429;DHT22;708;51.442;7.016;2023-07-16T00:51:52;20.40;46.10
1429;DHT22;708;51.442;7.016;2023-07-16T00:54:19;20.30;52.40
1429;DHT22;708;51.442;7.016;2023-07-16T00:56:46;20.20;66.70
1429;DHT22;708;51.442;7.016;2023-07-16T00:59:13;20.10;78.70
1429;DHT22;708;51.442;7.016;2023-07-16T01:01:41;20.00;84.20
1429;DHT22;708;51.442;7.016;2023-07-16T01:04:08;19.90;91.60
1429;DHT22;708;51.442;7.016;2023-07-16T01:06:38;19.80;99.60
1429;DHT22;708;51.442;7.016;2023-07-16T01:09:10;19.70;99.90
1429;DHT22;708;51.442;7.016;2023-07-16T01:11:37;19.50;99.90
1429;DHT22;708;51.442;7.016;2023-07-16T01:14:07;19.50;99.90
1429;DHT22;708;51.442;7.016;2023-07-16T01:16:34;19.40;99.90
1429;DHT22;708;51.442;7.016;2023-07-16T01:19:02;19.40;99.90
1429;DHT22;708;51.442;7.016;2023-07-16T01:21:33;19.40;99.90
1429;DHT22;708;51.442;7.016;2023-07-16T01:24:21;19.30;99.90
1429;DHT22;708;51.442;7.016;2023-07-16T01:27:14;19.30;99.90
1429;DHT22;708;51.442;7.016;2023-07-16T01:29:46;19.20;99.90
1429;DHT22;708;51.442;7.016;2023-07-16T01:32:13;19.10;99.90
1429;DHT22;708;51.442;7.016;2023-07-16T01:34:41;19.10;99.90
1429;DHT22;708;51.442;7.016;2023-07-16T01:37:09;19.10;99.90
1429;DHT22;708;51.442;7.016;2023-07-16T01:39:37;19.00;99.90
1429;DHT22;708;51.442;7.016;2023-07-16T01:42:04;19.00;99.90
1429;DHT22;708;51.442;7.016;2023-07-16T01:44:31;19.00;99.90
1429;DHT22;708;51.442;7.016;2023-07-16T01:47:06;18.90;99.90
1429;DHT22;708;51.442;7.016;2023-07-16T01:49:34;18.90;99.90
1429;DHT22;708;51.442;7.016;2023-07-16T01:52:02;18.90;99.90
1429;DHT22;708;51.442;7.016;2023-07-16T01:54:29;18.90;99.90
1429;DHT22;708;51.442;7.016;2023-07-16T01:56:56;18.80;99.90
1429;DHT22;708;51.442;7.016;2023-07-16T01:59:22;18.90;99.90
1429;DHT22;708;51.442;7.016;2023-07-16T02:01:49;18.90;99.90
1429;DHT22;708;51.442;7.016;2023-07-16T02:04:17;19.00;99.90
1429;DHT22;708;51.442;7.016;2023-07-16T02:06:44;19.10;99.90
1429;DHT22;708;51.442;7.016;2023-07-16T02:09:11;19.20;99.90
1429;DHT22;708;51.442;7.016;2023-07-16T02:11:38;19.20;99.90
1429;DHT22;708;51.442;7.016;2023-07-16T02:14:05;19.30;99.90
1429;DHT22;708;51.442;7.016;2023-07-16T02:16:31;19.40;99.90
1429;DHT22;708;51.442;7.016;2023-07-16T02:18:58;19.50;99.90
1429;DHT22;708;51.442;7.016;2023-07-16T02:21:26;19.50;99.90
1429;DHT22;708;51.442;7.016;2023-07-16T02:23:53;19.60;99.90
1429;DHT22;708;51.442;7.016;2023-07-16T02:26:20;19.60;94.90
1429;DHT22;708;51.442;7.016;2023-07-16T02:28:46;19.70;91.80
1429;DHT22;708;51.442;7.016;2023-07-16T02:31:13;19.70;85.90
1429;DHT22;708;51.442;7.016;2023-07-16T02:33:40;19.80;81.70
1429;DHT22;708;51.442;7.016;2023-07-16T02:36:07;19.70;74.80
1429;DHT22;708;51.442;7.016;2023-07-16T02:38:35;19.70;76.60
1429;DHT22;708;51.442;7.016;2023-07-16T02:41:01;19.60;88.10
1429;DHT22;708;51.442;7.016;2023-07-16T02:43:28;19.60;94.10
1429;DHT22;708;51.442;7.016;2023-07-16T02:45:55;19.70;93.20
1429;DHT22;708;51.442;7.016;2023-07-16T02:48:22;19.70;95.90
1429;DHT22;708;51.442;7.016;2023-07-16T02:50:48;19.70;93.70
1429;DHT22;708;51.442;7.016;2023-07-16T02:53:15;19.70;92.90
1429;DHT22;708;51.442;7.016;2023-07-16T02:55:45;19.70;92.50
1429;DHT22;708;51.442;7.016;2023-07-16T02:58:12;19.70;94.70
1429;DHT22;708;51.442;7.016;2023-07-16T03:00:39;19.70;91.90
1429;DHT22;708;51.442;7.016;2023-07-16T03:03:05;19.70;76.00
1429;DHT22;708;51.442;7.016;2023-07-16T03:05:32;19.70;71.80
1429;DHT22;708;51.442;7.016;2023-07-16T03:07:59;19.60;65.60
1429;DHT22;708;51.442;7.016;2023-07-16T03:10:26;19.50;68.20
1429;DHT22;708;51.442;7.016;2023-07-16T03:12:54;19.40;74.70
1429;DHT22;708;51.442;7.016;2023-07-16T03:15:21;19.30;79.20
1429;DHT22;708;51.442;7.016;2023-07-16T03:17:47;19.30;84.80
1429;DHT22;708;51.442;7.016;2023-07-16T03:20:14;19.20;83.80
1429;DHT22;708;51.442;7.016;2023-07-16T03:22:41;19.10;82.00
1429;DHT22;708;51.442;7.016;2023-07-16T03:25:08;19.00;79.30
1429;DHT22;708;51.442;7.016;2023-07-16T03:27:35;19.00;74.30
1429;DHT22;708;51.442;7.016;2023-07-16T03:30:04;18.90;70.40
1429;DHT22;708;51.442;7.016;2023-07-16T03:32:31;18.80;74.30
1429;DHT22;708;51.442;7.016;2023-07-16T03:34:57;18.80;79.80
1429;DHT22;708;51.442;7.016;2023-07-16T03:37:24;18.70;72.90
1429;DHT22;708;51.442;7.016;2023-07-16T03:39:51;18.70;64.70
1429;DHT22;708;51.442;7.016;2023-07-16T03:42:18;18.70;53.20
1429;DHT22;708;51.442;7.016;2023-07-16T03:44:45;18.70;45.10
1429;DHT22;708;51.442;7.016;2023-07-16T03:47:13;18.70;31.70
1429;DHT22;708;51.442;7.016;2023-07-16T03:49:39;18.60;26.10
1429;DHT22;708;51.442;7.016;2023-07-16T03:52:06;18.60;13.60
1429;DHT22;708;51.442;7.016;2023-07-16T03:54:33;18.60;14.30
1429;DHT22;708;51.442;7.016;2023-07-16T03:57:00;18.70;1.00
1429;DHT22;708;51.442;7.016;2023-07-16T03:59:27;18.70;1.00
1429;DHT22;708;51.442;7.016;2023-07-16T04:01:53;18.70;1.00
1429;DHT22;708;51.442;7.016;2023-07-16T04:04:21;18.70;1.00
1429;DHT22;708;51.442;7.016;2023-07-16T04:06:48;18.70;1.00
1429;DHT22;708;51.442;7.016;2023-07-16T04:09:15;18.80;1.00
1429;DHT22;708;51.442;7.016;2023-07-16T04:11:41;18.80;1.00
1429;DHT22;708;51.442;7.016;2023-07-16T04:14:08;18.80;1.00
1429;DHT22;708;51.442;7.016;2023-07-16T04:16:35;18.80;1.00
1429;DHT22;708;51.442;7.016;2023-07-16T04:19:02;19.00;1.00
1429;DHT22;708;51.442;7.016;2023-07-16T04:21:31;18.90;1.00
1429;DHT22;708;51.442;7.016;2023-07-16T04:23:58;19.00;1.00
1429;DHT22;708;51.442;7.016;2023-07-16T04:26:25;19.10;1.00
1429;DHT22;708;51.442;7.016;2023-07-16T04:28:52;19.10;1.00
1429;DHT22;708;51.442;7.016;2023-07-16T04:31:18;19.20;1.00
1429;DHT22;708;51.442;7.016;2023-07-16T04:33:47;19.20;1.00
1429;DHT22;708;51.442;7.016;2023-07-16T04:36:15;19.20;1.00
1429;DHT22;708;51.442;7.016;2023-07-16T04:38:43;19.30;1.00
1429;DHT22;708;51.442;7.016;2023-07-16T04:41:11;19.40;1.00
1429;DHT22;708;51.442;7.016;2023-07-16T04:43:38;19.40;1.00
1429;DHT22;708;51.442;7.016;2023-07-16T04:46:08;19.50;1.00
1429;DHT22;708;51.442;7.016;2023-07-16T04:48:42;19.60;1.00
1429;DHT22;708;51.442;7.016;2023-07-16T04:51:10;19.80;1.00
1429;DHT22;708;51.442;7.016;2023-07-16T04:53:37;20.50;99.90
1429;DHT22;708;51.442;7.016;2023-07-16T04:56:10;21.40;99.90
1429;DHT22;708;51.442;7.016;2023-07-16T04:58:37;22.40;1.00
1429;DHT22;708;51.442;7.016;2023-07-16T05:01:04;23.50;1.00
1429;DHT22;708;51.442;7.016;2023-07-16T05:03:31;24.50;1.00
1429;DHT22;708;51.442;7.016;2023-07-16T05:05:58;25.20;99.90
1429;DHT22;708;51.442;7.016;2023-07-16T05:08:24;25.80;1.00
1429;DHT22;708;51.442;7.016;2023-07-16T05:10:51;26.40;99.90
1429;DHT22;708;51.442;7.016;2023-07-16T05:13:19;27.00;99.90
1429;DHT22;708;51.442;7.016;2023-07-16T05:15:46;27.70;99.90
1429;DHT22;708;51.442;7.016;2023-07-16T05:18:13;28.30;99.90
1429;DHT22;708;51.442;7.016;2023-07-16T05:20:39;28.80;99.90
1429;DHT22;708;51.442;7.016;2023-07-16T05:23:06;29.20;99.90
1429;DHT22;708;51.442;7.016;2023-07-16T05:25:33;29.50;95.00
1429;DHT22;708;51.442;7.016;2023-07-16T05:28:00;30.00;83.70
1429;DHT22;708;51.442;7.016;2023-07-16T05:30:28;30.60;65.80
1429;DHT22;708;51.442;7.016;2023-07-16T05:32:55;30.90;49.00
1429;DHT22;708;51.442;7.016;2023-07-16T05:35:21;31.40;38.00
1429;DHT22;708;51.442;7.016;2023-07-16T05:37:48;31.60;29.60
1429;DHT22;708;51.442;7.016;2023-07-16T05:40:15;31.60;25.60
1429;DHT22;708;51.442;7.016;2023-07-16T05:42:41;31.70;21.50
1429;DHT22;708;51.442;7.016;2023-07-16T05:45:09;31.40;17.40
1429;DHT22;708;51.442;7.016;2023-07-16T05:47:37;31.50;17.00
1429;DHT22;708;51.442;7.016;2023-07-16T05:50:04;31.90;15.50
1429;DHT22;708;51.442;7.016;2023-07-16T05:52:31;32.40;11.70
1429;DHT22;708;51.442;7.016;2023-07-16T05:54:58;31.80;7.70
1429;DHT22;708;51.442;7.016;2023-07-16T05:57:25;32.90;4.00
1429;DHT22;708;51.442;7.016;2023-07-16T05:59:52;33.10;1.80
1429;DHT22;708;51.442;7.016;2023-07-16T06:02:18;33.30;1.50
1429;DHT22;708;51.442;7.016;2023-07-16T06:04:46;33.40;1.00
1429;DHT22;708;51.442;7.016;2023-07-16T06:07:13;33.60;1.00
1429;DHT22;708;51.442;7.016;2023-07-16T06:09:40;34.10;1.00
1429;DHT22;708;51.442;7.016;2023-07-16T06:14:34;34.50;1.00
1429;DHT22;708;51.442;7.016;2023-07-16T06:17:01;34.20;1.00
1429;DHT22;708;51.442;7.016;2023-07-16T06:19:28;34.40;1.00
1429;DHT22;708;51.442;7.016;2023-07-16T06:21:56;34.40;1.00
1429;DHT22;708;51.442;7.016;2023-07-16T06:24:23;34.50;1.00
1429;DHT22;708;51.442;7.016;2023-07-16T06:26:50;34.40;1.00
1429;DHT22;708;51.442;7.016;2023-07-16T06:29:16;34.60;1.00
1429;DHT22;708;51.442;7.016;2023-07-16T06:31:53;34.60;1.00
1429;DHT22;708;51.442;7.016;2023-07-16T06:34:20;34.70;1.00
1429;DHT22;708;51.442;7.016;2023-07-16T06:36:47;35.10;1.00
1429;DHT22;708;51.442;7.016;2023-07-16T06:39:15;35.30;1.00
1429;DHT22;708;51.442;7.016;2023-07-16T06:41:42;35.30;1.00
1429;DHT22;708;51.442;7.016;2023-07-16T06:44:08;35.20;1.00
1429;DHT22;708;51.442;7.016;2023-07-16T06:46:35;35.30;1.00
1429;DHT22;708;51.442;7.016;2023-07-16T06:49:02;35.30;1.00
1429;DHT22;708;51.442;7.016;2023-07-16T06:51:29;35.80;1.00
1429;DHT22;708;51.442;7.016;2023-07-16T06:53:58;36.10;1.00
1429;DHT22;708;51.442;7.016;2023-07-16T06:56:27;35.90;1.00
1429;DHT22;708;51.442;7.016;2023-07-16T06:58:53;36.20;1.00
1429;DHT22;708;51.442;7.016;2023-07-16T07:01:20;36.10;1.00
1429;DHT22;708;51.442;7.016;2023-07-16T07:03:47;36.10;1.00
1429;DHT22;708;51.442;7.016;2023-07-16T07:06:14;36.20;1.00
1429;DHT22;708;51.442;7.016;2023-07-16T07:08:41;36.50;1.00
1429;DHT22;708;51.442;7.016;2023-07-16T07:11:07;36.60;1.00
1429;DHT22;708;51.442;7.016;2023-07-16T07:13:42;36.40;1.00
1429;DHT22;708;51.442;7.016;2023-07-16T07:16:09;36.60;1.00
1429;DHT22;708;51.442;7.016;2023-07-16T07:18:36;36.80;1.00
1429;DHT22;708;51.442;7.016;2023-07-16T07:21:02;36.90;1.00
1429;DHT22;708;51.442;7.016;2023-07-16T07:23:29;36.60;1.00
1429;DHT22;708;51.442;7.016;2023-07-16T07:25:56;36.40;1.00
1429;DHT22;708;51.442;7.016;2023-07-16T07:28:22;36.50;1.00
1429;DHT22;708;51.442;7.016;2023-07-16T07:30:51;36.60;1.00
1429;DHT22;708;51.442;7.016;2023-07-16T07:33:17;36.70;1.00
1429;DHT22;708;51.442;7.016;2023-07-16T07:35:44;36.80;1.00
1429;DHT22;708;51.442;7.016;2023-07-16T07:38:11;37.00;1.00
1429;DHT22;708;51.442;7.016;2023-07-16T07:43:05;37.50;1.00
1429;DHT22;708;51.442;7.016;2023-07-16T07:45:32;37.50;1.00
1429;DHT22;708;51.442;7.016;2023-07-16T07:48:00;37.60;1.00
1429;DHT22;708;51.442;7.016;2023-07-16T07:50:26;38.40;1.00
1429;DHT22;708;51.442;7.016;2023-07-16T07:52:54;38.90;1.00
1429;DHT22;708;51.442;7.016;2023-07-16T07:55:21;39.00;1.00
1429;DHT22;708;51.442;7.016;2023-07-16T07:57:48;39.00;1.00
1429;DHT22;708;51.442;7.016;2023-07-16T08:00:14;39.00;1.00
1429;DHT22;708;51.442;7.016;2023-07-16T08:02:41;38.80;1.00
1429;DHT22;708;51.442;7.016;2023-07-16T08:05:10;38.50;1.00
1429;DHT22;708;51.442;7.016;2023-07-16T08:07:36;38.10;1.00
1429;DHT22;708;51.442;7.016;2023-07-16T08:10:04;37.90;1.00
1429;DHT22;708;51.442;7.016;2023-07-16T08:12:30;37.90;1.00
1429;DHT22;708;51.442;7.016;2023-07-16T08:14:58;37.60;1.00
1429;DHT22;708;51.442;7.016;2023-07-16T08:17:24;37.50;1.00
1429;DHT22;708;51.442;7.016;2023-07-16T08:19:51;37.30;1.00
1429;DHT22;708;51.442;7.016;2023-07-16T08:22:19;36.70;1.00
1429;DHT22;708;51.442;7.016;2023-07-16T08:24:46;36.00;1.00
1429;DHT22;708;51.442;7.016;2023-07-16T08:27:13;35.40;1.00
1429;DHT22;708;51.442;7.016;2023-07-16T08:29:39;35.20;1.00
1429;DHT22;708;51.442;7.016;2023-07-16T08:32:07;35.20;1.00
1429;DHT22;708;51.442;7.016;2023-07-16T08:34:34;35.00;1.00
1429;DHT22;708;51.442;7.016;2023-07-16T08:37:01;35.50;1.00
1429;DHT22;708;51.442;7.016;2023-07-16T08:39:30;35.70;1.00
1429;DHT22;708;51.442;7.016;2023-07-16T08:41:58;36.30;1.00
1429;DHT22;708;51.442;7.016;2023-07-16T08:44:24;36.70;1.00
1429;DHT22;708;51.442;7.016;2023-07-16T08:46:51;36.90;1.00
1429;DHT22;708;51.442;7.016;2023-07-16T08:49:19;37.10;1.00
1429;DHT22;708;51.442;7.016;2023-07-16T08:51:49;37.00;1.00
1429;DHT22;708;51.442;7.016;2023-07-16T08:54:16;37.20;1.00
1429;DHT22;708;51.442;7.016;2023-07-16T08:56:47;37.50;1.00
1429;DHT22;708;51.442;7.016;2023-07-16T08:59:15;36.70;1.00
1429;DHT22;708;51.442;7.016;2023-07-16T09:01:42;36.10;1.00
1429;DHT22;708;51.442;7.016;2023-07-16T09:04:09;35.70;1.00
1429;DHT22;708;51.442;7.016;2023-07-16T09:06:36;34.90;1.00
1429;DHT22;708;51.442;7.016;2023-07-16T09:09:02;33.80;1.00
1429;DHT22;708;51.442;7.016;2023-07-16T09:11:29;32.40;1.00
1429;DHT22;708;51.442;7.016;2023-07-16T09:13:57;31.60;1.00
1429;DHT22;708;51.442;7.016;2023-07-16T09:16:32;31.40;1.00
1429;DHT22;708;51.442;7.016;2023-07-16T09:19:05;32.10;1.00
1429;DHT22;708;51.442;7.016;2023-07-16T09:21:32;33.60;1.00
1429;DHT22;708;51.442;7.016;2023-07-16T09:24:06;34.00;1.00
1429;DHT22;708;51.442;7.016;2023-07-16T09:26:33;34.50;1.00
1429;DHT22;708;51.442;7.016;2023-07-16T09:29:05;34.70;1.00
1429;DHT22;708;51.442;7.016;2023-07-16T09:31:32;34.60;1.00
1429;DHT22;708;51.442;7.016;2023-07-16T09:33:59;34.40;1.00
1429;DHT22;708;51.442;7.016;2023-07-16T09:36:26;34.60;1.00
1429;DHT22;708;51.442;7.016;2023-07-16T09:38:54;35.10;1.00
1429;DHT22;708;51.442;7.016;2023-07-16T09:41:21;35.20;1.00
1429;DHT22;708;51.442;7.016;2023-07-16T09:43:48;34.40;1.00
1429;DHT22;708;51.442;7.016;2023-07-16T09:46:16;33.60;1.00
1429;DHT22;708;51.442;7.016;2023-07-16T09:48:43;33.30;1.00
1429;DHT22;708;51.442;7.016;2023-07-16T09:51:11;33.30;1.00
1429;DHT22;708;51.442;7.016;2023-07-16T09:53:41;33.10;1.00
1429;DHT22;708;51.442;7.016;2023-07-16T09:56:10;33.10;1.00
1429;DHT22;708;51.442;7.016;2023-07-16T09:58:39;32.50;1.00
1429;DHT22;708;51.442;7.016;2023-07-16T10:01:07;31.80;1.00
1429;DHT22;708;51.442;7.016;2023-07-16T10:03:35;31.40;1.00
1429;DHT22;708;51.442;7.016;2023-07-16T10:06:06;31.30;1.00
1429;DHT22;708;51.442;7.016;2023-07-16T10:08:34;31.20;1.00
1429;DHT22;708;51.442;7.016;2023-07-16T10:11:01;31.50;1.00
1429;DHT22;708;51.442;7.016;2023-07-16T10:13:28;32.00;1.00
1429;DHT22;708;51.442;7.016;2023-07-16T10:15:56;32.70;1.00
1429;DHT22;708;51.442;7.016;2023-07-16T10:18:26;32.60;1.00
1429;DHT22;708;51.442;7.016;2023-07-16T10:21:02;33.20;1.00
1429;DHT22;708;51.442;7.016;2023-07-16T10:23:38;34.20;1.00
1429;DHT22;708;51.442;7.016;2023-07-16T10:26:07;34.10;1.00
1429;DHT22;708;51.442;7.016;2023-07-16T10:28:35;33.60;1.00
1429;DHT22;708;51.442;7.016;2023-07-16T10:31:02;33.60;1.00
1429;DHT22;708;51.442;7.016;2023-07-16T10:33:29;33.80;1.00
1429;DHT22;708;51.442;7.016;2023-07-16T10:35:57;34.10;1.00
1429;DHT22;708;51.442;7.016;2023-07-16T10:38:26;34.00;1.00
1429;DHT22;708;51.442;7.016;2023-07-16T10:40:53;33.70;1.00
1429;DHT22;708;51.442;7.016;2023-07-16T10:43:20;33.80;1.00
1429;DHT22;708;51.442;7.016;2023-07-16T10:45:47;33.80;1.00
1429;DHT22;708;51.442;7.016;2023-07-16T10:48:14;33.00;1.00
1429;DHT22;708;51.442;7.016;2023-07-16T10:50:41;32.10;1.00
1429;DHT22;708;51.442;7.016;2023-07-16T10:53:08;31.20;1.00
1429;DHT22;708;51.442;7.016;2023-07-16T10:55:36;30.80;1.00
1429;DHT22;708;51.442;7.016;2023-07-16T10:58:04;30.60;1.00
1429;DHT22;708;51.442;7.016;2023-07-16T11:00:32;30.30;1.00
1429;DHT22;708;51.442;7.016;2023-07-16T11:03:03;30.10;1.00
1429;DHT22;708;51.442;7.016;2023-07-16T11:05:29;29.80;1.00
1429;DHT22;708;51.442;7.016;2023-07-16T11:07:56;29.70;1.00
1429;DHT22;708;51.442;7.016;2023-07-16T11:10:24;29.70;1.00
1429;DHT22;708;51.442;7.016;2023-07-16T11:12:53;29.60;1.00
1429;DHT22;708;51.442;7.016;2023-07-16T11:15:30;29.50;1.00
1429;DHT22;708;51.442;7.016;2023-07-16T11:17:57;29.40;1.00
1429;DHT22;708;51.442;7.016;2023-07-16T11:20:24;29.40;1.00
1429;DHT22;708;51.442;7.016;2023-07-16T11:22:51;29.00;1.00
1429;DHT22;708;51.442;7.016;2023-07-16T11:25:18;28.70;1.00
1429;DHT22;708;51.442;7.016;2023-07-16T11:27:45;28.70;1.00
1429;DHT22;708;51.442;7.016;2023-07-16T11:30:13;28.60;1.00
1429;DHT22;708;51.442;7.016;2023-07-16T11:32:43;28.50;1.00
1429;DHT22;708;51.442;7.016;2023-07-16T11:35:16;28.40;1.00
1429;DHT22;708;51.442;7.016;2023-07-16T11:37:43;28.50;1.00
1429;DHT22;708;51.442;7.016;2023-07-16T11:40:14;28.60;1.00
1429;DHT22;708;51.442;7.016;2023-07-16T11:42:41;28.60;1.00
1429;DHT22;708;51.442;7.016;2023-07-16T11:45:17;28.50;1.00
1429;DHT22;708;51.442;7.016;2023-07-16T11:47:44;28.20;1.00
1429;DHT22;708;51.442;7.016;2023-07-16T11:50:12;27.60;1.00
1429;DHT22;708;51.442;7.016;2023-07-16T11:52:39;27.50;1.00
1429;DHT22;708;51.442;7.016;2023-07-16T11:55:06;27.20;1.00
1429;DHT22;708;51.442;7.016;2023-07-16T11:57:34;27.00;1.00
1429;DHT22;708;51.442;7.016;2023-07-16T12:00:01;26.90;1.00
1429;DHT22;708;51.442;7.016;2023-07-16T12:02:30;27.00;1.00
1429;DHT22;708;51.442;7.016;2023-07-16T12:04:56;27.00;1.00
1429;DHT22;708;51.442;7.016;2023-07-16T12:07:31;26.90;1.00
1429;DHT22;708;51.442;7.016;2023-07-16T12:09:59;26.90;1.00
1429;DHT22;708;51.442;7.016;2023-07-16T12:12:26;27.10;1.00
1429;DHT22;708;51.442;7.016;2023-07-16T12:14:52;27.30;1.00
1429;DHT22;708;51.442;7.016;2023-07-16T12:17:19;27.50;1.00
1429;DHT22;708;51.442;7.016;2023-07-16T12:19:47;27.50;1.00
1429;DHT22;708;51.442;7.016;2023-07-16T12:22:17;27.60;1.00
1429;DHT22;708;51.442;7.016;2023-07-16T12:24:44;27.50;1.00
1429;DHT22;708;51.442;7.016;2023-07-16T12:27:11;27.60;1.00
1429;DHT22;708;51.442;7.016;2023-07-16T12:29:38;27.60;1.00
1429;DHT22;708;51.442;7.016;2023-07-16T12:32:06;27.70;1.00
1429;DHT22;708;51.442;7.016;2023-07-16T12:34:33;27.60;1.00
1429;DHT22;708;51.442;7.016;2023-07-16T12:37:02;27.40;1.00
1429;DHT22;708;51.442;7.016;2023-07-16T12:39:29;27.30;1.00
1429;DHT22;708;51.442;7.016;2023-07-16T12:41:56;27.30;1.00
1429;DHT22;708;51.442;7.016;2023-07-16T12:44:23;27.30;1.00
1429;DHT22;708;51.442;7.016;2023-07-16T12:46:49;27.40;1.00
1429;DHT22;708;51.442;7.016;2023-07-16T12:49:16;27.60;1.00
1429;DHT22;708;51.442;7.016;2023-07-16T12:51:43;27.70;1.00
1429;DHT22;708;51.442;7.016;2023-07-16T12:54:11;27.80;1.00
1429;DHT22;708;51.442;7.016;2023-07-16T12:56:38;27.80;1.00
1429;DHT22;708;51.442;7.016;2023-07-16T12:59:05;27.70;1.00
1429;DHT22;708;51.442;7.016;2023-07-16T13:01:31;27.60;1.00
1429;DHT22;708;51.442;7.016;2023-07-16T13:03:58;27.70;1.00
1429;DHT22;708;51.442;7.016;2023-07-16T13:06:25;28.00;1.00
1429;DHT22;708;51.442;7.016;2023-07-16T13:08:52;28.40;1.00
1429;DHT22;708;51.442;7.016;2023-07-16T13:11:20;28.70;1.00
1429;DHT22;708;51.442;7.016;2023-07-16T13:13:47;28.70;1.00
1429;DHT22;708;51.442;7.016;2023-07-16T13:16:13;28.70;1.00
1429;DHT22;708;51.442;7.016;2023-07-16T13:18:40;28.80;1.00
1429;DHT22;708;51.442;7.016;2023-07-16T13:21:07;28.90;1.00
1429;DHT22;708;51.442;7.016;2023-07-16T13:23:33;29.10;1.00
1429;DHT22;708;51.442;7.016;2023-07-16T13:26:01;29.30;1.00
1429;DHT22;708;51.442;7.016;2023-07-16T13:28:29;29.40;1.00
1429;DHT22;708;51.442;7.016;2023-07-16T13:30:56;29.40;1.00
1429;DHT22;708;51.442;7.016;2023-07-16T13:33:22;29.20;1.00
1429;DHT22;708;51.442;7.016;2023-07-16T13:35:49;28.90;1.00
1429;DHT22;708;51.442;7.016;2023-07-16T13:38:16;28.60;1.00
1429;DHT22;708;51.442;7.016;2023-07-16T13:40:43;28.50;1.00
1429;DHT22;708;51.442;7.016;2023-07-16T13:43:09;28.50;1.00
1429;DHT22;708;51.442;7.016;2023-07-16T13:45:38;28.40;1.00
1429;DHT22;708;51.442;7.016;2023-07-16T13:48:05;28.50;1.00
1429;DHT22;708;51.442;7.016;2023-07-16T13:50:32;28.50;1.00
1429;DHT22;708;51.442;7.016;2023-07-16T13:52:58;28.60;1.00
1429;DHT22;708;51.442;7.016;2023-07-16T13:55:27;28.60;1.00
1429;DHT22;708;51.442;7.016;2023-07-16T13:57:53;28.40;1.00
1429;DHT22;708;51.442;7.016;2023-07-16T14:00:21;28.30;1.00
1429;DHT22;708;51.442;7.016;2023-07-16T14:02:49;28.20;1.00
1429;DHT22;708;51.442;7.016;2023-07-16T14:05:16;28.20;1.00
1429;DHT22;708;51.442;7.016;2023-07-16T14:07:42;28.10;1.00
1429;DHT22;708;51.442;7.016;2023-07-16T14:10:09;28.00;1.00
1429;DHT22;708;51.442;7.016;2023-07-16T14:12:36;28.00;1.00
1429;DHT22;708;51.442;7.016;2023-07-16T14:15:04;28.20;1.00
1429;DHT22;708;51.442;7.016;2023-07-16T14:17:31;28.40;1.00
1429;DHT22;708;51.442;7.016;2023-07-16T14:19:59;28.60;1.00
1429;DHT22;708;51.442;7.016;2023-07-16T14:22:25;28.60;1.00
1429;DHT22;708;51.442;7.016;2023-07-16T14:24:53;28.70;1.00
1429;DHT22;708;51.442;7.016;2023-07-16T14:27:19;28.90;1.00
1429;DHT22;708;51.442;7.016;2023-07-16T14:29:46;28.80;1.00
1429;DHT22;708;51.442;7.016;2023-07-16T14:32:13;28.80;1.00
1429;DHT22;708;51.442;7.016;2023-07-16T14:34:40;28.70;1.00
1429;DHT22;708;51.442;7.016;2023-07-16T14:37:08;28.60;1.00
1429;DHT22;708;51.442;7.016;2023-07-16T14:39:34;28.50;1.00
1429;DHT22;708;51.442;7.016;2023-07-16T14:42:01;28.40;1.00
1429;DHT22;708;51.442;7.016;2023-07-16T14:44:30;28.20;1.00
1429;DHT22;708;51.442;7.016;2023-07-16T14:46:56;28.10;1.00
1429;DHT22;708;51.442;7.016;2023-07-16T14:49:23;28.10;1.00
1429;DHT22;708;51.442;7.016;2023-07-16T14:51:50;28.20;1.00
1429;DHT22;708;51.442;7.016;2023-07-16T14:54:18;28.40;1.00
1429;DHT22;708;51.442;7.016;2023-07-16T14:56:45;28.50;1.00
1429;DHT22;708;51.442;7.016;2023-07-16T14:59:12;28.60;1.00
1429;DHT22;708;51.442;7.016;2023-07-16T15:01:38;28.60;1.00
1429;DHT22;708;51.442;7.016;2023-07-16T15:04:05;28.60;1.00
1429;DHT22;708;51.442;7.016;2023-07-16T15:06:32;28.50;1.00
1429;DHT22;708;51.442;7.016;2023-07-16T15:08:59;28.40;1.00
1429;DHT22;708;51.442;7.016;2023-07-16T15:11:27;28.40;1.00
1429;DHT22;708;51.442;7.016;2023-07-16T15:13:54;28.30;1.00
1429;DHT22;708;51.442;7.016;2023-07-16T15:16:21;28.20;1.00
1429;DHT22;708;51.442;7.016;2023-07-16T15:18:47;28.10;1.00
1429;DHT22;708;51.442;7.016;2023-07-16T15:21:14;27.90;1.00
1429;DHT22;708;51.442;7.016;2023-07-16T15:23:43;27.90;1.00
1429;DHT22;708;51.442;7.016;2023-07-16T15:26:10;27.90;1.00
1429;DHT22;708;51.442;7.016;2023-07-16T15:28:39;27.90;1.00
1429;DHT22;708;51.442;7.016;2023-07-16T15:31:09;28.00;1.00
1429;DHT22;708;51.442;7.016;2023-07-16T15:33:37;28.00;1.00
1429;DHT22;708;51.442;7.016;2023-07-16T15:36:04;28.00;1.00
1429;DHT22;708;51.442;7.016;2023-07-16T15:38:31;27.80;1.00
1429;DHT22;708;51.442;7.016;2023-07-16T15:40:58;27.60;1.00
1429;DHT22;708;51.442;7.016;2023-07-16T15:43:25;27.60;1.00
1429;DHT22;708;51.442;7.016;2023-07-16T15:45:53;27.70;1.00
1429;DHT22;708;51.442;7.016;2023-07-16T15:48:19;27.80;1.00
1429;DHT22;708;51.442;7.016;2023-07-16T15:50:46;27.90;1.00
1429;DHT22;708;51.442;7.016;2023-07-16T15:53:13;28.00;1.00
1429;DHT22;708;51.442;7.016;2023-07-16T15:55:39;28.00;1.00
1429;DHT22;708;51.442;7.016;2023-07-16T15:58:06;28.00;1.00
1429;DHT22;708;51.442;7.016;2023-07-16T16:00:33;28.00;1.00
1429;DHT22;708;51.442;7.016;2023-07-16T16:03:01;27.90;1.00
1429;DHT22;708;51.442;7.016;2023-07-16T16:05:29;27.90;1.00
1429;DHT22;708;51.442;7.016;2023-07-16T16:08:13;27.70;1.00
1429;DHT22;708;51.442;7.016;2023-07-16T16:10:42;27.50;1.00
1429;DHT22;708;51.442;7.016;2023-07-16T16:13:10;27.30;1.00
1429;DHT22;708;51.442;7.016;2023-07-16T16:15:37;27.20;1.00
1429;DHT22;708;51.442;7.016;2023-07-16T16:18:05;27.10;1.00
1429;DHT22;708;51.442;7.016;2023-07-16T16:20:31;27.10;1.00
1429;DHT22;708;51.442;7.016;2023-07-16T16:22:58;27.10;1.00
1429;DHT22;708;51.442;7.016;2023-07-16T16:25:29;27.00;1.00
1429;DHT22;708;51.442;7.016;2023-07-16T16:27:56;26.90;1.00
1429;DHT22;708;51.442;7.016;2023-07-16T16:30:22;26.90;1.00
1429;DHT22;708;51.442;7.016;2023-07-16T16:32:49;26.70;1.00
1429;DHT22;708;51.442;7.016;2023-07-16T16:35:20;26.60;1.00